createdAt,value
2023-03-01T06:43:09.292Z,84.93
2023-03-01T06:45:56.901Z,84.93
2023-03-01T06:48:42.890Z,86.53
2023-03-01T06:51:28.533Z,86.52
2023-03-01T06:54:15.573Z,86.27
2023-03-01T06:57:00.681Z,85.64
2023-03-01T06:59:45.926Z,85.00
2023-03-01T07:02:31.566Z,84.94
2023-03-01T07:05:17.167Z,84.83
2023-03-01T07:08:03.136Z,84.60
2023-03-01T07:10:48.224Z,84.31
2023-03-01T07:13:33.831Z,83.73
2023-03-01T07:16:20.130Z,83.39
2023-03-01T07:19:06.460Z,82.95
2023-03-01T07:21:51.904Z,83.28
2023-03-01T07:24:37.266Z,83.22
2023-03-01T07:27:22.608Z,82.95
2023-03-01T07:30:08.730Z,82.83
2023-03-01T07:32:55.749Z,82.40
2023-03-01T07:35:41.245Z,82.11
2023-03-01T07:38:27.260Z,81.97
2023-03-01T07:41:12.709Z,81.72
2023-03-01T07:43:58.251Z,82.25
2023-03-01T07:46:45.672Z,81.86
2023-03-01T07:49:30.778Z,81.62
2023-03-01T07:52:16.095Z,81.35
2023-03-01T07:55:02.001Z,81.10
2023-03-01T07:57:47.091Z,80.97
2023-03-01T08:00:32.727Z,80.78
2023-03-01T08:03:18.205Z,80.50
2023-03-01T08:06:06.219Z,80.59
2023-03-01T08:08:51.417Z,80.70
2023-03-01T08:11:36.846Z,80.71
2023-03-01T08:14:22.305Z,80.67
2023-03-01T08:17:07.793Z,80.60
2023-03-01T08:19:53.398Z,80.54
2023-03-01T08:22:38.350Z,80.17
2023-03-01T08:25:24.014Z,80.24
2023-03-01T08:28:09.550Z,79.86
2023-03-01T08:30:54.667Z,79.59
2023-03-01T08:33:42.557Z,79.15
2023-03-01T08:36:30.446Z,79.01
2023-03-01T08:39:20.300Z,78.92
2023-03-01T08:42:05.950Z,78.76
2023-03-01T08:44:52.122Z,78.84
2023-03-01T08:47:38.292Z,78.50
2023-03-01T08:50:25.540Z,78.17
2023-03-01T08:53:11.341Z,78.34
2023-03-01T08:56:01.565Z,78.03
2023-03-01T08:58:48.400Z,78.07
2023-03-01T09:01:35.880Z,77.85
2023-03-01T09:04:22.345Z,77.95
2023-03-01T09:07:08.311Z,77.86
2023-03-01T09:09:56.287Z,78.00
2023-03-01T09:12:43.548Z,78.01
2023-03-01T09:15:31.157Z,78.16
2023-03-01T09:18:16.642Z,77.70
2023-03-01T09:21:08.227Z,77.51
2023-03-01T09:23:57.414Z,77.92
2023-03-01T09:26:43.304Z,78.08
2023-03-01T09:29:29.245Z,77.77
2023-03-01T09:32:15.177Z,77.98
2023-03-01T09:35:04.846Z,78.31
2023-03-01T09:37:51.456Z,79.37
2023-03-01T09:40:39.790Z,79.27
2023-03-01T09:44:07.530Z,78.78
2023-03-01T09:46:53.392Z,78.59
2023-03-01T09:49:42.773Z,78.06
2023-03-01T09:52:46.060Z,78.47
2023-03-01T09:55:36.546Z,77.40
2023-03-01T09:58:44.188Z,77.23
2023-03-01T10:01:37.103Z,76.72
2023-03-01T10:04:43.085Z,76.00
2023-03-01T10:07:41.161Z,75.53
2023-03-01T10:10:37.545Z,74.98
2023-03-01T10:14:06.264Z,74.90
2023-03-01T10:17:26.005Z,73.23
2023-03-01T10:20:23.611Z,72.43
2023-03-01T10:23:11.146Z,72.11
2023-03-01T10:26:24.583Z,71.86
2023-03-01T10:29:12.110Z,71.67
2023-03-01T10:31:57.285Z,70.89
2023-03-01T10:34:45.170Z,70.99
2023-03-01T10:38:10.300Z,70.92
2023-03-01T10:41:00.174Z,71.18
2023-03-01T10:43:47.652Z,71.28
2023-03-01T10:46:35.501Z,71.37
2023-03-01T10:49:26.688Z,71.58
2023-03-01T10:52:19.784Z,71.17
2023-03-01T10:55:14.368Z,71.20
2023-03-01T10:58:23.439Z,71.39
2023-03-01T11:01:18.543Z,71.33
2023-03-01T11:04:17.397Z,71.15
2023-03-01T11:07:03.536Z,71.16
2023-03-01T11:09:48.916Z,71.66
2023-03-01T11:12:35.985Z,71.84
2023-03-01T11:15:25.354Z,71.47
2023-03-01T11:18:26.608Z,71.07
2023-03-01T11:21:17.251Z,70.28
2023-03-01T11:24:04.509Z,69.28
2023-03-01T11:26:54.203Z,69.12
2023-03-01T11:29:57.547Z,69.19
2023-03-01T11:32:48.912Z,68.62
2023-03-01T11:35:39.488Z,68.02
2023-03-01T11:38:27.411Z,67.68
2023-03-01T11:41:23.046Z,67.10
2023-03-01T11:44:11.358Z,65.90
2023-03-01T11:47:09.373Z,65.73
2023-03-01T11:50:20.760Z,65.68
2023-03-01T11:53:38.652Z,65.61
2023-03-01T11:56:44.128Z,65.68
2023-03-01T11:59:38.744Z,64.79
2023-03-01T12:02:36.623Z,64.06
2023-03-01T12:05:36.331Z,63.69
2023-03-01T12:08:37.268Z,64.03
2023-03-01T12:11:58.551Z,63.20
2023-03-01T12:14:57.884Z,63.11
2023-03-01T12:18:02.115Z,61.71
2023-03-01T12:20:52.041Z,61.43
2023-03-01T12:23:43.353Z,60.63
2023-03-01T12:26:34.934Z,60.07
2023-03-01T12:29:34.134Z,59.56
2023-03-01T12:32:25.475Z,60.51
2023-03-01T12:35:11.049Z,60.99
2023-03-01T12:38:15.029Z,61.97
2023-03-01T12:41:31.325Z,60.76
2023-03-01T12:44:25.529Z,61.89
2023-03-01T12:47:42.859Z,61.93
2023-03-01T12:50:38.449Z,61.88
2023-03-01T12:53:29.714Z,62.20
2023-03-01T12:56:20.991Z,62.42
2023-03-01T12:59:32.963Z,63.14
2023-03-01T13:02:36.830Z,63.95
2023-03-01T13:05:31.509Z,64.22
2023-03-01T13:08:32.083Z,64.56
2023-03-01T13:11:20.952Z,63.80
2023-03-01T13:14:24.190Z,63.99
2023-03-01T13:17:31.029Z,64.46
2023-03-01T13:20:19.167Z,64.77
2023-03-01T13:23:08.556Z,64.93
2023-03-01T13:25:59.890Z,65.55
2023-03-01T13:28:45.135Z,65.81
2023-03-01T13:31:30.097Z,65.28
2023-03-01T13:34:41.358Z,65.66
